Tiempo atmosférico en la estación meteorológica de Degaña, Asturias (1305 m.)

Fecha
DESCASC
Temp. máxima en grados centígrados (hora)
DESCASC
Temp. mínima en grados centígrados (hora)
DESCASC
Temp. media en grados centígrados
DESCASC
Racha de viento máxima en m/sg (hora)
DESCASC
Velocidad máxima media en intervalos de 10 minutos(hora)
DESCASC
Precipitaciones diarias en mm
DESCASC
Precipitaciones de 00:00 a 06:00 en mm
DESCASC
Precipitaciones de 06:00 a 12:00 en mm
DESCASC
Precipitaciones de 12:00 a 18:00 en mm
DESCASC
Precipitaciones de 18:00 a 24:00 en mm
DESCASC
23-11-2017 12.1 (15:20) 6.2 (09:00) 9.2 10.83 (21:10) 4.72 (01:40) 2.4 2.4 0 0 0
22-11-2017 11.8 (10:40) 5.2 (01:40) 8.5 14.44 (18:40) 4.72 (17:30) 1.2 0 0 0 1.2
21-11-2017 14.4 (13:50) 3 (07:10) 8.7 6.67 (21:20) 3.61 (21:30) 0 0 0 0 0
20-11-2017 16.3 (13:40) 3.9 (05:20) 10.1 3.33 (11:30) 1.94 (13:10) 0 0 0 0 0
19-11-2017 16 (14:30) 3.6 (00:00) 9.8 4.72 (10:30) 2.78 (12:00) 0 0 0 0 0
18-11-2017 15.3 (14:10) 4 (00:00) 9.7 5.83 (08:10) 3.89 (04:10) 0 0 0 0 0
17-11-2017 15.5 (13:50) 4.8 (00:00) 10.2 6.11 (22:10) 4.17 (22:10) 0 0 0 0 0
16-11-2017 16 (12:30) 4.5 (00:00) 10.3 3.61 (03:50) 1.94 (12:20) 0 0 0 0 0
15-11-2017 16.1 (13:10) 5.4 (00:00) 10.8 8.61 (08:30) 6.11 (09:30) 0 0 0 0 0
14-11-2017 12.9 (13:30) 0.6 (00:00) 6.7 10 (00:10) 7.22 (00:10) 0 0 0 0 0
13-11-2017 6 (00:00) 0.9 (00:00) 3.4 14.17 (11:50) 7.5 (23:40) 0.2 0.2 0 0 0
12-11-2017 6.7 (14:50) -0.1 (00:00) 3.3 6.67 (22:10) 2.5 (23:50) 1.8 0 0 1.6 0.2
11-11-2017 8.5 (14:50) 0 (00:00) 4.3 3.33 (13:50) 1.39 (12:10) 0.2 0 0 0.2 0
10-11-2017 9.3 (13:10) 4 (00:00) 6.7 8.06 (10:40) 3.61 (13:10) 11.6 5.4 6.2 0 0
09-11-2017 4.2 (13:50) -0.4 (00:00) 1.9 6.39 (13:30) 3.06 (13:40) 7.8 0 3.4 0.8 3.6
08-11-2017 2.4 (14:00) -0.1 (00:00) 1.2 8.89 (20:10) 2.78 (20:10) 17.6 5 1 9.6 2
07-11-2017 9.4 (11:00) 0.9 (00:00) 5.1 8.89 (20:20) 3.61 (20:20) 9 0 0 3 6
06-11-2017 8.1 (15:20) 1.6 (00:00) 4.9 9.17 (09:10) 3.06 (09:30) 1 1 0 0 0
05-11-2017 4.5 (00:00) 2 (00:00) 3.3 9.17 (21:30) 2.5 (00:40) 15.2 6.4 3.8 3.6 1.4
04-11-2017 9.7 (14:30) 4.5 (00:00) 7.1 8.89 (20:00) 3.61 (02:30) 10.8 0 0.2 3.2 7.4
03-11-2017 8.6 (14:50) 6 (00:00) 7.3 7.5 (02:50) 5 (02:40) 3.8 1.6 0.6 1.4 0.2
02-11-2017 11.6 (12:10) 7 (22:40) 9.3 8.61 (10:00) 4.17 (23:10) 5 0 0 3.4 1.6
01-11-2017 13.7 (12:40) 5.2 (00:00) 9.4 8.06 (13:30) 3.33 (13:30) 0 0 0 0 0
31-10-2017 17.3 (14:40) 3.7 (00:00) 10.5 8.06 (01:30) 5.28 (01:20) 0 0 0 0 0
30-10-2017 12.7 (14:50) 3.5 (00:00) 8.1 9.44 (10:10) 5.56 (23:10) 0 0 0 0 0
29-10-2017 15.9 (11:20) 3.9 (00:00) 9.9 6.11 (10:20) 3.06 (10:10) 0 0 0 0 0
28-10-2017 20.1 (16:20) 6.9 (00:00) 13.5 9.72 (01:30) 3.61 (02:20) 0 0 0 0 0
27-10-2017 21.6 (14:30) 10.1 (00:00) 15.9 8.89 (17:20) 3.61 (17:20) 0 0 0 0 0
26-10-2017 20.4 (16:20) 9.2 (00:00) 14.8 9.72 (02:20) 2.78 (11:00) 0 0 0 0 0

Gráficas

Temp. máximas Temp. mínimas Temp. medias Precipitaciones Rachas de viento máximas Velocidades máximas media en intervalos de 10 minutos

Datos horarios

Fecha y hora oficial Temperatura (ºC) Velocidad del viento (km/h) Dirección del viento Racha (km/h) Dirección de racha Precipitación (mm) Presión (hPa) Tendencia (hPa) Humedad (%)
2017-11-24 23:00:00 6.5 3 Sudoeste 17 Oeste 1.2 -- -- 99
2017-11-24 22:00:00 7 0 Calma 5 Sur 3 -- -- 100
2017-11-24 21:00:00 7 0 Calma 4 Noroeste 1.8 -- -- 99
2017-11-24 20:00:00 7.1 0 Calma 9 Noroeste 1.2 -- -- 98
2017-11-24 19:00:00 7.3 0 Calma 4 Oeste 1.8 -- -- 99
2017-11-24 18:00:00 7.5 0 Calma 9 Oeste 1 -- -- 98
2017-11-24 17:00:00 7.8 3 Noroeste 9 Oeste 1.2 -- -- 99
2017-11-24 16:00:00 8.4 0 Calma 10 Noroeste 0.4 -- -- 98
2017-11-24 15:00:00 8.7 2 Norte 10 Oeste 0.8 -- -- 97
2017-11-24 14:00:00 9 2 Sudoeste 6 Noroeste 0.4 -- -- 96
2017-11-24 13:00:00 8.9 3 Sur 7 Sur 0 -- -- 95
2017-11-24 12:00:00 8.6 0 Calma 5 Sudeste 0 -- -- 95
2017-11-24 11:00:00 8.3 0 Calma 4 Sur 0 -- -- 94
2017-11-24 10:00:00 7.7 0 Calma 4 Sur 0 -- -- 98
2017-11-24 09:00:00 7.1 0 Calma 4 Noroeste 0 -- -- 98
2017-11-24 08:00:00 6.9 0 Calma 6 Sudoeste 0.2 -- -- 97
2017-11-24 07:00:00 7 2 Nordeste 5 Este 0.2 -- -- 96
2017-11-24 06:00:00 7 3 Este 18 Nordeste 0.2 -- -- 93
2017-11-24 05:00:00 6.9 10 Nordeste 24 Norte 0.4 -- -- 94
2017-11-24 04:00:00 7.4 12 Nordeste 23 Este 0.4 -- -- 91
2017-11-24 03:00:00 7.9 2 Nordeste 13 Norte 0 -- -- 89
2017-11-24 02:00:00 8 3 Oeste 29 Sur 0.2 -- -- 87
2017-11-24 01:00:00 8.7 8 Noroeste 24 Sudeste 0 -- -- 81
2017-11-24 00:00:00 8.5 2 Norte 18 Sur 0 -- -- 76
2017-11-23 23:00:00 9.2 6 Sudeste 19 Sur 0 -- -- 72
2017-11-23 22:00:00 9.4 6 Sudeste 39 Sur 0 -- -- 68
2017-11-23 21:00:00 9.6 10 Sudoeste 33 Sur 0 -- -- 69
2017-11-23 20:00:00 9.6 6 Noroeste 21 Oeste 0 -- -- 77
2017-11-23 19:00:00 10 5 Nordeste 21 Sur 0 -- -- 84
2017-11-23 18:00:00 10.8 5 Nordeste 24 Norte 0 -- -- 81
2017-11-23 17:00:00 11.3 10 Nordeste 25 Norte 0 -- -- 73
2017-11-23 16:00:00 11.3 6 Este 28 Sur 0 -- -- 71
2017-11-23 15:00:00 11.7 9 Este 37 Sur 0 -- -- 67
2017-11-23 14:00:00 10.6 5 Norte 22 Noroeste 0 -- -- 71
2017-11-23 13:00:00 9 7 Nordeste 32 Sudeste 0 -- -- 77
2017-11-23 12:00:00 8.2 7 Noroeste 24 Sur 0 -- -- 83
2017-11-23 11:00:00 8 4 Este 18 Sudeste 0 -- -- 87
2017-11-23 10:00:00 7.2 4 Nordeste 30 Sur 0 -- -- 88
2017-11-23 09:00:00 6.2 4 Noroeste 13 Noroeste 0 -- -- 94
2017-11-23 08:00:00 7.5 3 Norte 13 Nordeste 0 -- -- 90
2017-11-23 07:00:00 7.6 5 Noroeste 13 Noroeste 0 -- -- 94
2017-11-23 06:00:00 7.5 5 Nordeste 19 Sudeste 0.4 -- -- 94
2017-11-23 05:00:00 7.2 8 Nordeste 20 Nordeste 0.6 -- -- 93
2017-11-23 04:00:00 7.4 7 Nordeste 31 Sur 0.8 -- -- 87
2017-11-23 03:00:00 7.8 13 Nordeste 32 Nordeste 0.4 -- -- 81
2017-11-23 02:00:00 8.4 13 Nordeste 34 Norte 0 -- -- 70
2017-11-23 01:00:00 7.5 11 Nordeste 35 Norte 0.2 -- -- 80
2017-11-23 00:00:00 6.7 11 Nordeste 30 Norte 1.2 -- -- 85
2017-11-22 23:00:00 7.3 10 Este 34 Sur 0 -- -- 74
2017-11-22 22:00:00 9.1 12 Sudeste 38 Sur 0 -- -- 55
2017-11-22 21:00:00 9.6 13 Este 39 Sudeste 0 -- -- 50
2017-11-22 20:00:00 10 11 Norte 36 Sudeste 0 -- -- 52
2017-11-22 19:00:00 10.4 13 Nordeste 52 Noroeste 0 -- -- 52
2017-11-22 18:00:00 10.1 10 Norte 34 Noroeste 0 -- -- 55
2017-11-22 17:00:00 9.8 10 Nordeste 46 Oeste 0 -- -- 56
2017-11-22 16:00:00 10.2 16 Norte 36 Norte 0 -- -- 56
2017-11-22 15:00:00 9.7 11 Nordeste 40 Este 0 -- -- 56
2017-11-22 14:00:00 10.4 12 Este 35 Nordeste 0 -- -- 53
2017-11-22 13:00:00 10.2 10 Este 31 Sur 0 -- -- 51
2017-11-22 12:00:00 10.5 10 Nordeste 37 Sudeste 0 -- -- 47
2017-11-22 11:00:00 11.8 9 Sudeste 30 Sudeste 0 -- -- 39
2017-11-22 10:00:00 10.5 8 Sur 22 Sur 0 -- -- 41
2017-11-22 09:00:00 6.8 4 Norte 17 Sur 0 -- -- 51
2017-11-22 08:00:00 7.4 6 Oeste 23 Sudeste 0 -- -- 50
2017-11-22 07:00:00 7.8 4 Nordeste 20 Sudeste 0 -- -- 48
2017-11-22 06:00:00 7.5 6 Nordeste 14 Nordeste 0 -- -- 51
2017-11-22 05:00:00 5.5 4 Norte 13 Nordeste 0 -- -- 58
2017-11-22 04:00:00 6.7 6 Norte 16 Noroeste 0 -- -- 52
2017-11-22 03:00:00 7.2 5 Noroeste 13 Norte 0 -- -- 48
2017-11-22 02:00:00 5.9 4 Noroeste 9 Este 0 -- -- 50
2017-11-22 01:00:00 5.5 4 Oeste 12 Sudoeste 0 -- -- 49
2017-11-22 00:00:00 5.5 4 Noroeste 9 Norte 0 -- -- 48
2017-11-21 23:00:00 7 5 Norte 18 Este 0 -- -- 44
2017-11-21 22:00:00 7.3 9 Nordeste 24 Nordeste 0 -- -- 42
2017-11-21 21:00:00 7.5 12 Nordeste 21 Nordeste 0 -- -- 42
2017-11-21 20:00:00 7.5 8 Nordeste 17 Este 0 -- -- 42
2017-11-21 19:00:00 6.6 3 Norte 10 Nordeste 0 -- -- 39
2017-11-21 18:00:00 7.6 6 Noroeste 10 Norte 0 -- -- 36
2017-11-21 17:00:00 11.3 2 Norte 11 Noroeste 0 -- -- 30
2017-11-21 16:00:00 12.7 5 Sur 20 Sur 0 -- -- 25
2017-11-21 15:00:00 14 6 Sudeste 19 Sur 0 -- -- 26
2017-11-21 14:00:00 14.2 8 Sudeste 19 Sudeste 0 -- -- 26
2017-11-21 13:00:00 13.8 5 Sur 12 Sur 0 -- -- 26
2017-11-21 12:00:00 13.1 6 Sudeste 10 Sudeste 0 -- -- 28
2017-11-21 11:00:00 12.7 3 Sudeste 8 Sudeste 0 -- -- 27
2017-11-21 10:00:00 9.4 5 Este 9 Sudeste 0 -- -- 33
2017-11-21 09:00:00 3.2 3 Oeste 10 Noroeste 0 -- -- 51
2017-11-21 08:00:00 3.2 6 Noroeste 9 Noroeste 0 -- -- 48
2017-11-21 07:00:00 3.3 4 Noroeste 7 Noroeste 0 -- -- 52
2017-11-21 06:00:00 3.6 6 Noroeste 8 Noroeste 0 -- -- 51
2017-11-21 05:00:00 3.7 4 Noroeste 8 Noroeste 0 -- -- 50
2017-11-21 04:00:00 4.4 5 Oeste 10 Noroeste 0 -- -- 48
2017-11-21 03:00:00 3.9 4 Oeste 8 Noroeste 0 -- -- 54
2017-11-21 02:00:00 4.1 2 Noroeste 6 Noroeste 0 -- -- 51
2017-11-21 01:00:00 4.4 4 Oeste 8 Noroeste 0 -- -- 52
2017-11-21 00:00:00 5 4 Noroeste 7 Noroeste 0 -- -- 52
2017-11-20 23:00:00 4.9 4 Noroeste 7 Noroeste 0 -- -- 56
2017-11-20 22:00:00 4.9 4 Noroeste 7 Noroeste 0 -- -- 58
2017-11-20 21:00:00 5.3 4 Noroeste 7 Noroeste 0 -- -- 57
2017-11-20 20:00:00 6 6 Noroeste 8 Noroeste 0 -- -- 54
2017-11-20 19:00:00 6.7 5 Noroeste 6 Noroeste 0 -- -- 51
2017-11-20 18:00:00 8.8 4 Noroeste 9 Noroeste 0 -- -- 42
2017-11-20 17:00:00 12.5 3 Oeste 8 Sur 0 -- -- 35
2017-11-20 16:00:00 14.6 3 Sur 12 Sur 0 -- -- 28
2017-11-20 15:00:00 15.9 3 Sur 12 Sur 0 -- -- 28
2017-11-20 14:00:00 16.2 5 Sudeste 12 Sur 0 -- -- 30
2017-11-20 13:00:00 16 6 Sur 10 Sur 0 -- -- 30
2017-11-20 12:00:00 15.2 6 Sudeste 12 Sur 0 -- -- 29
2017-11-20 11:00:00 13.5 5 Sur 8 Sudeste 0 -- -- 35
2017-11-20 10:00:00 9.2 0 Calma 5 Sudeste 0 -- -- 43
2017-11-20 09:00:00 4.3 4 Oeste 6 Oeste 0 -- -- 56
2017-11-20 08:00:00 4.1 4 Noroeste 7 Noroeste 0 -- -- 57
2017-11-20 07:00:00 4.2 5 Noroeste 8 Noroeste 0 -- -- 56
2017-11-20 06:00:00 4.2 4 Noroeste 8 Noroeste 0 -- -- 59
2017-11-20 05:00:00 4.2 3 Noroeste 10 Norte 0 -- -- 62
2017-11-20 04:00:00 4.3 4 Noroeste 6 Noroeste 0 -- -- 62
2017-11-20 03:00:00 4.6 4 Noroeste 7 Noroeste 0 -- -- 58
2017-11-20 02:00:00 4.7 4 Noroeste 7 Noroeste 0 -- -- 61
2017-11-20 01:00:00 4.7 4 Noroeste 8 Noroeste 0 -- -- 62
2017-11-20 00:00:00 4.9 4 Noroeste 6 Noroeste 0 -- -- 64
2017-11-19 23:00:00 5.1 5 Noroeste 8 Noroeste 0 -- -- 65
2017-11-19 22:00:00 5.8 6 Noroeste 9 Noroeste 0 -- -- 62
2017-11-19 21:00:00 5.8 5 Noroeste 8 Noroeste 0 -- -- 64
2017-11-19 20:00:00 6 4 Noroeste 8 Noroeste 0 -- -- 65
2017-11-19 19:00:00 6.6 5 Noroeste 8 Noroeste 0 -- -- 62
2017-11-19 18:00:00 8.4 3 Noroeste 5 Noroeste 0 -- -- 55
2017-11-19 17:00:00 11.6 2 Norte 10 Oeste 0 -- -- 45
2017-11-19 16:00:00 13.8 2 Noroeste 9 Sudoeste 0 -- -- 36
2017-11-19 15:00:00 15.1 4 Sur 10 Sur 0 -- -- 35
2017-11-19 14:00:00 15.6 4 Sudeste 14 Sur 0 -- -- 31
2017-11-19 13:00:00 15.2 5 Sur 13 Sudeste 0 -- -- 28
2017-11-19 12:00:00 15.7 10 Sudeste 15 Sudeste 0 -- -- 26
2017-11-19 11:00:00 14 5 Sudeste 17 Este 0 -- -- 29
2017-11-19 10:00:00 11 9 Este 15 Este 0 -- -- 30
2017-11-19 09:00:00 3.9 4 Noroeste 8 Noroeste 0 -- -- 54
2017-11-19 08:00:00 3.7 4 Noroeste 8 Noroeste 0 -- -- 55
2017-11-19 07:00:00 4.1 5 Noroeste 7 Noroeste 0 -- -- 53
2017-11-19 06:00:00 4.1 5 Noroeste 7 Noroeste 0 -- -- 56
2017-11-19 05:00:00 4.3 5 Noroeste 7 Noroeste 0 -- -- 60
2017-11-19 04:00:00 4.7 6 Noroeste 8 Noroeste 0 -- -- 56
2017-11-19 03:00:00 4.6 5 Noroeste 6 Noroeste 0 -- -- 57
2017-11-19 02:00:00 4.6 4 Noroeste 8 Noroeste 0 -- -- 59
2017-11-19 01:00:00 5.4 5 Noroeste 8 Noroeste 0 -- -- 53
2017-11-19 00:00:00 6.4 2 Oeste 16 Nordeste 0 -- -- 52
2017-11-18 23:00:00 8.3 8 Nordeste 19 Este 0 -- -- 52
2017-11-18 22:00:00 8.6 7 Nordeste 14 Nordeste 0 -- -- 49
2017-11-18 21:00:00 5.8 5 Norte 11 Nordeste 0 -- -- 65
2017-11-18 20:00:00 5.2 3 Noroeste 5 Noroeste 0 -- -- 74
2017-11-18 19:00:00 5.4 3 Noroeste 5 Noroeste 0 -- -- 74
2017-11-18 18:00:00 7.5 0 Calma 6 Oeste 0 -- -- 65
2017-11-18 17:00:00 10.8 4 Noroeste 8 Noroeste 0 -- -- 52
2017-11-18 16:00:00 12.5 3 Oeste 10 Noroeste 0 -- -- 47
2017-11-18 15:00:00 14.3 5 Oeste 14 Sudoeste 0 -- -- 42
2017-11-18 14:00:00 15.2 5 Sur 15 Sur 0 -- -- 38
2017-11-18 13:00:00 14.3 9 Sudeste 18 Este 0 -- -- 35
2017-11-18 12:00:00 13.2 9 Este 19 Este 0 -- -- 38
2017-11-18 11:00:00 12.9 8 Este 15 Este 0 -- -- 39
2017-11-18 10:00:00 10.6 9 Este 19 Este 0 -- -- 44
2017-11-18 09:00:00 5.7 7 Nordeste 21 Este 0 -- -- 61
2017-11-18 08:00:00 7 13 Este 20 Este 0 -- -- 54
2017-11-18 07:00:00 4.2 4 Noroeste 8 Noroeste 0 -- -- 70
2017-11-18 06:00:00 4.3 4 Noroeste 10 Nordeste 0 -- -- 72
2017-11-18 05:00:00 5.2 5 Noroeste 19 Nordeste 0 -- -- 67
2017-11-18 04:00:00 7.6 12 Nordeste 17 Este 0 -- -- 55
2017-11-18 03:00:00 6.3 4 Nordeste 14 Nordeste 0 -- -- 65
2017-11-18 02:00:00 6.2 6 Nordeste 14 Este 0 -- -- 65
2017-11-18 01:00:00 6.8 9 Nordeste 15 Nordeste 0 -- -- 61
2017-11-18 00:00:00 7.5 3 Este 20 Este 0 -- -- 62
2017-11-17 23:00:00 9.5 12 Nordeste 22 Este 0 -- -- 51
2017-11-17 22:00:00 9.2 14 Este 21 Este 0 -- -- 55
2017-11-17 21:00:00 6.8 5 Este 13 Este 0 -- -- 62
2017-11-17 20:00:00 5.8 3 Noroeste 6 Noroeste 0 -- -- 71
2017-11-17 19:00:00 6.2 4 Noroeste 6 Noroeste 0 -- -- 71
2017-11-17 18:00:00 8.3 3 Noroeste 6 Noroeste 0 -- -- 64
2017-11-17 17:00:00 11.4 0 Calma 11 Sudeste 0 -- -- 52
2017-11-17 16:00:00 12.7 4 Sur 13 Sur 0 -- -- 44
2017-11-17 15:00:00 14.3 3 Noroeste 11 Sudeste 0 -- -- 41
2017-11-17 14:00:00 15.3 5 Sur 15 Sur 0 -- -- 39
2017-11-17 13:00:00 15.1 5 Sur 13 Sur 0 -- -- 38
2017-11-17 12:00:00 15.1 8 Sur 13 Sur 0 -- -- 38
2017-11-17 11:00:00 13.9 5 Este 10 Nordeste 0 -- -- 39
2017-11-17 10:00:00 11.2 5 Este 13 Este 0 -- -- 46
2017-11-17 09:00:00 5.3 3 Noroeste 8 Noroeste 0 -- -- 68
2017-11-17 08:00:00 4.9 4 Noroeste 8 Noroeste 0 -- -- 66
2017-11-17 07:00:00 5.3 5 Noroeste 8 Noroeste 0 -- -- 64
2017-11-17 06:00:00 5.3 6 Noroeste 8 Noroeste 0 -- -- 65
2017-11-17 05:00:00 5.3 4 Noroeste 9 Noroeste 0 -- -- 66
2017-11-17 04:00:00 5.7 4 Noroeste 8 Noroeste 0 -- -- 63
2017-11-17 03:00:00 5.8 4 Noroeste 7 Noroeste 0 -- -- 64
2017-11-17 02:00:00 5.6 4 Noroeste 8 Noroeste 0 -- -- 68
2017-11-17 01:00:00 5.6 4 Noroeste 7 Noroeste 0 -- -- 70
2017-11-17 00:00:00 5.8 5 Noroeste 8 Noroeste 0 -- -- 69
2017-11-16 23:00:00 6 5 Noroeste 8 Noroeste 0 -- -- 70
2017-11-16 22:00:00 6.2 3 Noroeste 8 Noroeste 0 -- -- 72
2017-11-16 21:00:00 6.5 6 Noroeste 7 Noroeste 0 -- -- 75
2017-11-16 20:00:00 6.5 4 Noroeste 6 Noroeste 0 -- -- 77
2017-11-16 19:00:00 7 3 Noroeste 5 Noroeste 0 -- -- 74
2017-11-16 18:00:00 9 3 Oeste 8 Sudeste 0 -- -- 66
2017-11-16 17:00:00 11.9 3 Noroeste 13 Noroeste 0 -- -- 51
2017-11-16 16:00:00 13.4 3 Noroeste 12 Noroeste 0 -- -- 42
2017-11-16 15:00:00 15.5 3 Sudoeste 12 Sur 0 -- -- 41
2017-11-16 14:00:00 15.3 4 Sur 12 Oeste 0 -- -- 38
2017-11-16 13:00:00 15.7 2 Norte 12 Sudoeste 0 -- -- 38
2017-11-16 12:00:00 15.3 6 Sudeste 10 Sur 0 -- -- 36
2017-11-16 11:00:00 13.7 4 Sudeste 10 Sudeste 0 -- -- 41
2017-11-16 10:00:00 10.2 3 Sudeste 9 Nordeste 0 -- -- 52
2017-11-16 09:00:00 5.3 4 Noroeste 9 Noroeste 0 -- -- 67
2017-11-16 08:00:00 4.6 5 Noroeste 8 Oeste 0 -- -- 68
2017-11-16 07:00:00 4.7 3 Noroeste 8 Noroeste 0 -- -- 67
2017-11-16 06:00:00 5 5 Noroeste 9 Noroeste 0 -- -- 65
2017-11-16 05:00:00 5.6 4 Noroeste 8 Noroeste 0 -- -- 64
2017-11-16 04:00:00 6 3 Noroeste 13 Nordeste 0 -- -- 62
2017-11-16 03:00:00 5.9 2 Noroeste 8 Norte 0 -- -- 64
2017-11-16 02:00:00 6.5 4 Norte 9 Norte 0 -- -- 61
2017-11-16 01:00:00 6.2 0 Calma 7 Noroeste 0 -- -- 67
2017-11-16 00:00:00 7.6 3 Norte 14 Este 0 -- -- 64
2017-11-15 23:00:00 6.8 3 Noroeste 16 Norte 0 -- -- 69
2017-11-15 22:00:00 10 10 Nordeste 22 Nordeste 0 -- -- 60
2017-11-15 21:00:00 5.4 3 Oeste 6 Noroeste 0 -- -- 82
2017-11-15 20:00:00 5.9 5 Noroeste 6 Noroeste 0 -- -- 78
2017-11-15 19:00:00 6.9 4 Noroeste 6 Noroeste 0 -- -- 74
2017-11-15 18:00:00 8.5 3 Noroeste 8 Oeste 0 -- -- 66
2017-11-15 17:00:00 11.7 3 Noroeste 10 Noroeste 0 -- -- 54
2017-11-15 16:00:00 13.3 3 Noroeste 13 Oeste 0 -- -- 47
2017-11-15 15:00:00 14.7 3 Sudoeste 11 Sur 0 -- -- 44
2017-11-15 14:00:00 14.5 6 Noroeste 14 Sur 0 -- -- 44
2017-11-15 13:00:00 16 7 Sudeste 15 Sudeste 0 -- -- 36
2017-11-15 12:00:00 14.1 8 Este 18 Este 0 -- -- 40
2017-11-15 11:00:00 12.6 10 Este 30 Este 0 -- -- 44
2017-11-15 10:00:00 10.5 21 Nordeste 31 Este 0 -- -- 46
2017-11-15 09:00:00 9.2 20 Nordeste 31 Este 0 -- -- 49
2017-11-15 08:00:00 9.7 18 Nordeste 24 Este 0 -- -- 45
2017-11-15 07:00:00 7.7 8 Nordeste 13 Nordeste 0 -- -- 55
2017-11-15 06:00:00 6.8 2 Oeste 14 Nordeste 0 -- -- 61
2017-11-15 05:00:00 7.9 5 Nordeste 16 Nordeste 0 -- -- 58
2017-11-15 04:00:00 10.2 9 Nordeste 18 Nordeste 0 -- -- 51
2017-11-15 03:00:00 9.4 13 Nordeste 20 Nordeste 0 -- -- 53
2017-11-15 02:00:00 8.7 7 Este 15 Nordeste 0 -- -- 56
2017-11-15 01:00:00 9.4 10 Nordeste 16 Este 0 -- -- 56
2017-11-15 00:00:00 6.5 2 Sudoeste 9 Norte 0 -- -- 73
2017-11-14 23:00:00 6.7 3 Norte 8 Nordeste 0 -- -- 74
2017-11-14 22:00:00 6.6 3 Noroeste 9 Norte 0 -- -- 76
2017-11-14 21:00:00 6 0 Calma 8 Noroeste 0 -- -- 79
2017-11-14 20:00:00 6.5 5 Noroeste 7 Noroeste 0 -- -- 76
2017-11-14 19:00:00 5.9 3 Noroeste 5 Noroeste 0 -- -- 74
2017-11-14 18:00:00 7.2 0 Calma 5 Sudoeste 0 -- -- 75
2017-11-14 17:00:00 9.2 0 Calma 6 Sur 0 -- -- 65
2017-11-14 16:00:00 10.8 0 Calma 7 Oeste 0 -- -- 56
2017-11-14 15:00:00 11.1 3 Sur 12 Oeste 0 -- -- 53
2017-11-14 14:00:00 10.6 4 Noroeste 14 Sur 0 -- -- 52
2017-11-14 13:00:00 12.1 4 Sur 9 Sur 0 -- -- 46
2017-11-14 12:00:00 9 5 Sur 10 Sur 0 -- -- 47
2017-11-14 11:00:00 9.3 3 Sudeste 23 Este 0 -- -- 47
2017-11-14 10:00:00 10.4 5 Sudeste 21 Este 0 -- -- 46
2017-11-14 09:00:00 3.3 0 Calma 9 Sudoeste 0 -- -- 65
2017-11-14 08:00:00 2.3 4 Sur 11 Nordeste 0 -- -- 62
2017-11-14 07:00:00 2.2 0 Calma 16 Este 0 -- -- 58
2017-11-14 06:00:00 8 14 Nordeste 28 Nordeste 0 -- -- 34
2017-11-14 05:00:00 7.4 15 Nordeste 23 Este 0 -- -- 23
2017-11-14 04:00:00 7.3 17 Nordeste 26 Nordeste 0 -- -- 23
2017-11-14 03:00:00 7.3 18 Nordeste 26 Nordeste 0 -- -- 25
2017-11-14 02:00:00 1 2 Oeste 12 Este 0 -- -- 65
2017-11-14 01:00:00 3.8 9 Nordeste 36 Nordeste 0 -- -- 53
2017-11-14 00:00:00 1.8 24 Nordeste 38 Este 0 -- -- 68
2017-11-13 23:00:00 2.3 17 Este 29 Este 0 -- -- 65
2017-11-13 22:00:00 1.1 12 Nordeste 29 Este 0 -- -- 80
2017-11-13 21:00:00 1.2 9 Este 19 Este 0 -- -- 87
2017-11-13 20:00:00 1.8 0 Calma 5 Este 0 -- -- 96
2017-11-13 19:00:00 2.2 0 Calma 4 Noroeste 0 -- -- 95
2017-11-13 18:00:00 2.7 0 Calma 8 Noroeste 0 -- -- 94
2017-11-13 17:00:00 3.8 2 Sudoeste 20 Noroeste 0 -- -- 87
2017-11-13 16:00:00 5.1 10 Noroeste 22 Noroeste 0 -- -- 69
2017-11-13 15:00:00 5.7 6 Sudeste 37 Este 0 -- -- 68
2017-11-13 14:00:00 5.3 14 Este 34 Nordeste 0 -- -- 70
2017-11-13 13:00:00 5.1 12 Nordeste 41 Este 0 -- -- 66
2017-11-13 12:00:00 4.4 15 Este 51 Este 0 -- -- 73
2017-11-13 11:00:00 3.9 19 Nordeste 45 Este 0 -- -- 80
2017-11-13 10:00:00 3.8 14 Este 49 Este 0 -- -- 83
2017-11-13 09:00:00 2.5 6 Sur 24 Nordeste 0 -- -- 88
2017-11-13 08:00:00 2.6 7 Sudeste 32 Sur 0 -- -- 86
2017-11-13 07:00:00 2.8 10 Norte 29 Este 0 -- -- 85
2017-11-13 06:00:00 3.4 10 Este 29 Este 0 -- -- 86
2017-11-13 05:00:00 4.4 10 Este 32 Noroeste 0 -- -- 85
2017-11-13 04:00:00 4.8 4 Sudoeste 15 Sur 0 -- -- 91
2017-11-13 03:00:00 5.4 4 Oeste 16 Sudoeste 0 -- -- 99
2017-11-13 02:00:00 5.7 4 Sur 16 Sudeste 0.2 -- -- 99
2017-11-13 01:00:00 5.7 5 Sur 17 Sudeste 0 -- -- 99
2017-11-13 00:00:00 6 4 Sudoeste 17 Sur 0 -- -- 98
2017-11-12 23:00:00 6 8 Sudeste 24 Norte 0 -- -- 97
2017-11-12 22:00:00 6.2 3 Sur 13 Oeste 0.2 -- -- 97
2017-11-12 21:00:00 6.2 3 Noroeste 14 Sur 0 -- -- 99
2017-11-12 20:00:00 6.3 3 Sur 9 Noroeste 0 -- -- 100
2017-11-12 19:00:00 6.5 3 Sudoeste 22 Noroeste 0 -- -- 100
2017-11-12 18:00:00 6.6 5 Sudoeste 15 Noroeste 0.4 -- -- 100
2017-11-12 17:00:00 6.6 5 Sur 13 Sudoeste 0.4 -- -- 100
2017-11-12 16:00:00 6.7 2 Este 10 Sur 0.4 -- -- 100
2017-11-12 15:00:00 6.6 3 Noroeste 15 Sur 0 -- -- 100
2017-11-12 14:00:00 6.1 2 Nordeste 6 Sur 0.2 -- -- 100
2017-11-12 13:00:00 5.7 3 Este 7 Nordeste 0.2 -- -- 99
2017-11-12 12:00:00 5.2 5 Noroeste 12 Noroeste 0 -- -- 95
2017-11-12 11:00:00 4.2 2 Norte 7 Noroeste 0 -- -- 100
2017-11-12 10:00:00 2.9 4 Noroeste 7 Noroeste 0 -- -- 100
2017-11-12 09:00:00 1.4 3 Noroeste 6 Noroeste 0 -- -- 100
2017-11-12 08:00:00 -0.1 3 Noroeste 6 Noroeste 0 -- -- 97
2017-11-12 07:00:00 1.8 3 Oeste 8 Noroeste 0 -- -- 87
2017-11-12 06:00:00 2.2 2 Oeste 9 Noroeste 0 -- -- 90
2017-11-12 05:00:00 1.2 6 Noroeste 8 Noroeste 0 -- -- 89
2017-11-12 04:00:00 1.3 0 Calma 7 Oeste 0 -- -- 89
2017-11-12 03:00:00 0.4 2 Noroeste 6 Noroeste 0 -- -- 97
2017-11-12 02:00:00 0.2 0 Calma 6 Noroeste 0 -- -- 100
2017-11-12 01:00:00 1.6 0 Calma 6 Noroeste 0 -- -- 100
2017-11-12 00:00:00 3.1 2 Norte 4 Norte 0 -- -- 100
2017-11-11 23:00:00 3.1 3 Noroeste 7 Oeste 0 -- -- 100
2017-11-11 22:00:00 1.3 2 Oeste 6 Noroeste 0 -- -- 97
2017-11-11 21:00:00 1.8 3 Oeste 8 Noroeste 0 -- -- 98
2017-11-11 20:00:00 2.5 3 Noroeste 6 Noroeste 0 -- -- 99
2017-11-11 19:00:00 3.2 2 Noroeste 5 Noroeste 0 -- -- 97
2017-11-11 18:00:00 5 0 Calma 6 Noroeste 0 -- -- 93
2017-11-11 17:00:00 6.9 2 Noroeste 9 Noroeste 0.2 -- -- 89
2017-11-11 16:00:00 7.8 4 Noroeste 10 Oeste 0 -- -- 85
2017-11-11 15:00:00 8.4 4 Oeste 11 Oeste 0 -- -- 84
2017-11-11 14:00:00 7.9 3 Sur 12 Este 0 -- -- 88
2017-11-11 13:00:00 6 3 Sudoeste 10 Sur 0 -- -- 92
2017-11-11 12:00:00 5.4 2 Sudeste 10 Sur 0 -- -- 95
2017-11-11 11:00:00 4.9 4 Sudeste 6 Sudeste 0 -- -- 100
2017-11-11 10:00:00 1.9 0 Calma 6 Oeste 0 -- -- 100
2017-11-11 09:00:00 0.1 0 Calma 7 Noroeste 0 -- -- 97
2017-11-11 08:00:00 0.4 4 Noroeste 9 Oeste 0 -- -- 100
2017-11-11 07:00:00 1.4 0 Calma 6 Noroeste 0 -- -- 100
2017-11-11 06:00:00 2.2 3 Noroeste 6 Norte 0 -- -- 100
2017-11-11 05:00:00 2.6 0 Calma 9 Oeste 0 -- -- 99
2017-11-11 04:00:00 2.6 3 Noroeste 6 Norte 0 -- -- 99
2017-11-11 03:00:00 2.7 3 Norte 6 Noroeste 0 -- -- 100
2017-11-11 02:00:00 1.2 3 Noroeste 6 Noroeste 0 -- -- 99
2017-11-11 01:00:00 1.9 4 Noroeste 12 Noroeste 0 -- -- 96
2017-11-11 00:00:00 4.3 8 Norte 22 Este 0 -- -- 89
2017-11-10 23:00:00 4.4 5 Norte 15 Norte 0 -- -- 93
2017-11-10 22:00:00 4.4 0 Calma 11 Oeste 0 -- -- 97
2017-11-10 21:00:00 5.4 4 Noroeste 18 Noroeste 0 -- -- 91
2017-11-10 20:00:00 5.8 7 Noroeste 18 Sudoeste 0 -- -- 87
2017-11-10 19:00:00 6.2 4 Norte 23 Noroeste 0 -- -- 88
2017-11-10 18:00:00 6.3 6 Norte 22 Nordeste 0 -- -- 88
2017-11-10 17:00:00 6.8 5 Nordeste 17 Nordeste 0 -- -- 87
2017-11-10 16:00:00 7.4 5 Sur 14 Sudeste 0 -- -- 93
2017-11-10 15:00:00 7.9 2 Sudeste 13 Sur 0 -- -- 92
2017-11-10 14:00:00 8.5 9 Sudeste 27 Sudeste 0 -- -- 83
2017-11-10 13:00:00 9.1 9 Sur 24 Nordeste 0 -- -- 86
2017-11-10 12:00:00 7.3 8 Sudeste 29 Sudeste 0 -- -- 95
2017-11-10 11:00:00 7.1 8 Sur 29 Sudeste 0.2 -- -- 100
2017-11-10 10:00:00 5.8 4 Sudoeste 23 Noroeste 1.2 -- -- 100
2017-11-10 09:00:00 5 0 Calma 5 Este 1.8 -- -- 100
2017-11-10 08:00:00 4.8 0 Calma 4 Nordeste 1.8 -- -- 100
2017-11-10 07:00:00 4.7 2 Nordeste 7 Sudeste 1.2 -- -- 100
2017-11-10 06:00:00 4.6 0 Calma 6 Norte 1.2 -- -- 100
2017-11-10 05:00:00 4.5 3 Este 7 Sudeste 1 -- -- 100
2017-11-10 04:00:00 4.3 0 Calma 6 Sur 1 -- -- 100
2017-11-10 03:00:00 4.1 2 Noroeste 11 Sudoeste 0.8 -- -- 100
2017-11-10 02:00:00 4.3 9 Sur 21 Este 0.4 -- -- 100
2017-11-10 01:00:00 4.1 5 Sudoeste 15 Sur 1 -- -- 100
2017-11-10 00:00:00 4 2 Nordeste 5 Norte 1.6 -- -- 100
2017-11-09 23:00:00 4 0 Calma 8 Sur 1 -- -- 100
2017-11-09 22:00:00 4 0 Calma 13 Sudeste 0.2 -- -- 100
2017-11-09 21:00:00 4 4 Sudoeste 10 Sur 0.4 -- -- 100
2017-11-09 20:00:00 3.9 2 Oeste 12 Sur 0.2 -- -- 100
2017-11-09 19:00:00 3.8 3 Sudoeste 19 Nordeste 0.2 -- -- 100
2017-11-09 18:00:00 3.9 4 Sudoeste 10 Sur 0 -- -- 100
2017-11-09 17:00:00 4.1 3 Sur 11 Sur 0.2 -- -- 100
2017-11-09 16:00:00 4.1 4 Sur 13 Sudeste 0 -- -- 99
2017-11-09 15:00:00 4.2 3 Sur 16 Este 0 -- -- 98
2017-11-09 14:00:00 4.2 8 Sudeste 23 Sudeste 0 -- -- 96
2017-11-09 13:00:00 3.7 7 Sur 18 Sudeste 0.6 -- -- 98
2017-11-09 12:00:00 2.1 3 Sudoeste 16 Sur 1.6 -- -- 100
2017-11-09 11:00:00 1.4 2 Sur 16 Sur 1.8 -- -- 99
2017-11-09 10:00:00 1.1 5 Sur 20 Sur 0 -- -- 98
2017-11-09 09:00:00 0.9 6 Sur 19 Sur 0 -- -- 96
2017-11-09 08:00:00 0.2 5 Sudoeste 22 Sur 0 -- -- 94
2017-11-09 07:00:00 0.1 6 Sur 21 Sur 0 -- -- 84
2017-11-09 06:00:00 -0.3 5 Sur 23 Sur 0 -- -- 88
2017-11-09 05:00:00 -0.2 6 Sur 19 Sur 0 -- -- 86
2017-11-09 04:00:00 0.1 7 Sur 19 Sur 0 -- -- 87
2017-11-09 03:00:00 0.1 7 Sur 22 Sur 0 -- -- 92
2017-11-09 02:00:00 -0.1 7 Sur 17 Sur 0 -- -- 94
2017-11-09 01:00:00 -0.1 5 Sur 14 Sur 0 -- -- 94
2017-11-09 00:00:00 0.1 4 Sur 30 Noroeste 0 -- -- 95
2017-11-08 23:00:00 0.3 0 Calma -- -- 0 -- -- 95
2017-11-08 22:00:00 0.2 0 Calma 13 Sudoeste 0 -- -- 93
2017-11-08 21:00:00 0.4 8 Sudoeste 32 Norte 0.6 -- -- 93
2017-11-08 20:00:00 0.6 5 Sudeste 24 Sudeste 0.4 -- -- 97
2017-11-08 19:00:00 1 5 Sudeste 28 Sur 1 -- -- 96
2017-11-08 18:00:00 0.5 9 Sudeste 27 Sudeste 0.8 -- -- 99
2017-11-08 17:00:00 1.2 2 Sudeste 11 Sudoeste 2.4 -- -- 99
2017-11-08 16:00:00 2.1 4 Sudoeste 23 Noroeste 1.4 -- -- 97
2017-11-08 15:00:00 2.4 5 Sur 21 Oeste 1.4 -- -- 98
2017-11-08 14:00:00 2.4 6 Sudoeste 21 Oeste 2.2 -- -- 98
2017-11-08 13:00:00 1.9 3 Sudoeste 12 Noroeste 1.4 -- -- 100
2017-11-08 12:00:00 0.9 3 Oeste 11 Sudoeste 0.8 -- -- 100
2017-11-08 11:00:00 0.3 0 Calma -- -- 0.2 -- -- 100
2017-11-08 10:00:00 0.1 0 Calma 0 Calma 0 -- -- 100
2017-11-08 09:00:00 0 0 Calma -- -- 0 -- -- 100
2017-11-08 08:00:00 0 0 Calma -- -- 0 -- -- 99
2017-11-08 07:00:00 0 0 Calma -- -- 0 -- -- 98
2017-11-08 06:00:00 0 0 Calma 15 Sudeste 0 -- -- 97
2017-11-08 05:00:00 0.4 0 Calma 15 Sudeste 0 -- -- 99
2017-11-08 04:00:00 0.8 2 Sudeste 18 Sudeste 0.6 -- -- 99
2017-11-08 03:00:00 1.5 6 Sudeste 15 Este 1.4 -- -- 100
2017-11-08 02:00:00 1.9 4 Sur 13 Sudeste 1.4 -- -- 100
2017-11-08 01:00:00 2.1 5 Este 10 Sudeste 1.6 -- -- 100
2017-11-08 00:00:00 2.2 4 Sudoeste 24 Sudoeste 1 -- -- 99
2017-11-07 23:00:00 2.6 9 Este 28 Este 0.4 -- -- 99
2017-11-07 22:00:00 2.6 4 Sudeste 24 Este 0.2 -- -- 98
2017-11-07 21:00:00 2.5 4 Oeste 32 Este 1.8 -- -- 98
2017-11-07 20:00:00 4.1 5 Norte 18 Oeste 1.4 -- -- 98
2017-11-07 19:00:00 4.5 4 Sudoeste 17 Oeste 1.2 -- -- 99
2017-11-07 18:00:00 4.9 3 Sur 29 Noroeste 0.8 -- -- 97
2017-11-07 17:00:00 5.1 8 Oeste 24 Noroeste 0.6 -- -- 99
2017-11-07 16:00:00 5.3 3 Noroeste 17 Oeste 0.8 -- -- 98
2017-11-07 15:00:00 5.6 2 Sur 6 Sudeste 0.6 -- -- 96
2017-11-07 14:00:00 6 2 Norte 18 Oeste 0.2 -- -- 90
2017-11-07 13:00:00 7.8 3 Norte 13 Sur 0 -- -- 75
2017-11-07 12:00:00 8.4 3 Noroeste 12 Sudoeste 0 -- -- 68
2017-11-07 11:00:00 9.4 5 Sudeste 13 Sur 0 -- -- 61
2017-11-07 10:00:00 6.5 3 Noroeste 8 Oeste 0 -- -- 66
2017-11-07 09:00:00 2 0 Calma 8 Noroeste 0 -- -- 90
2017-11-07 08:00:00 1 5 Noroeste 8 Oeste 0 -- -- 89
2017-11-07 07:00:00 0.9 3 Oeste 9 Oeste 0 -- -- 88
2017-11-07 06:00:00 1.2 4 Noroeste 7 Noroeste 0 -- -- 85
2017-11-07 05:00:00 1.2 4 Noroeste 8 Noroeste 0 -- -- 84
2017-11-07 04:00:00 1.4 5 Noroeste 8 Noroeste 0 -- -- 83
2017-11-07 03:00:00 1.6 5 Noroeste 8 Noroeste 0 -- -- 83
2017-11-07 02:00:00 1.6 4 Noroeste 7 Noroeste 0 -- -- 85
2017-11-07 01:00:00 1.7 4 Noroeste 8 Noroeste 0 -- -- 88
2017-11-07 00:00:00 1.8 4 Noroeste 9 Noroeste 0 -- -- 92
2017-11-06 23:00:00 1.6 5 Noroeste 8 Noroeste 0 -- -- 97
2017-11-06 22:00:00 1.8 3 Noroeste 8 Noroeste 0 -- -- 98
2017-11-06 21:00:00 3.4 4 Oeste 7 Noroeste 0 -- -- 95
2017-11-06 20:00:00 4.7 0 Calma 3 Sur 0 -- -- 96
2017-11-06 19:00:00 5.1 0 Calma 4 Oeste 0 -- -- 95
2017-11-06 18:00:00 5.7 0 Calma 9 Noroeste 0 -- -- 92
2017-11-06 17:00:00 6.1 3 Sur 9 Sudoeste 0 -- -- 90
2017-11-06 16:00:00 7.4 2 Norte 12 Noroeste 0 -- -- 85
2017-11-06 15:00:00 7.9 4 Sur 13 Noroeste 0 -- -- 85
2017-11-06 14:00:00 7.4 5 Noroeste 13 Sur 0 -- -- 87
2017-11-06 13:00:00 6.4 3 Noroeste 15 Noroeste 0 -- -- 90
2017-11-06 12:00:00 6.4 7 Sudeste 21 Nordeste 0 -- -- 86
2017-11-06 11:00:00 5.3 5 Nordeste 29 Este 0 -- -- 81
2017-11-06 10:00:00 3.8 11 Nordeste 33 Este 0 -- -- 87
2017-11-06 09:00:00 2.8 8 Sudeste 26 Sur 0 -- -- 91
2017-11-06 08:00:00 2.3 3 Sudeste 20 Este 0 -- -- 95
2017-11-06 07:00:00 2.6 9 Sudeste 24 Este 0 -- -- 99
2017-11-06 06:00:00 2.4 0 Calma 8 Noroeste 0.2 -- -- 100
2017-11-06 05:00:00 2.4 3 Sudeste 19 Sur 0 -- -- 99
2017-11-06 04:00:00 2.5 4 Sur 18 Sudoeste 0.2 -- -- 100
2017-11-06 03:00:00 2.4 4 Sur 16 Sudoeste 0 -- -- 100
2017-11-06 02:00:00 2.6 6 Sudoeste 19 Sur 0 -- -- 99
2017-11-06 01:00:00 2.6 2 Nordeste 10 Sur 0.6 -- -- 100
2017-11-06 00:00:00 2.6 3 Sudeste 16 Sur 0.2 -- -- 100
2017-11-05 23:00:00 2.5 4 Sur 21 Sur 0.2 -- -- 98
2017-11-05 22:00:00 2.4 6 Sudoeste 33 Sudoeste 0 -- -- 95
2017-11-05 21:00:00 2.4 3 Sudoeste 17 Oeste 0.4 -- -- 98
2017-11-05 20:00:00 2.7 8 Oeste 24 Sudoeste 0.2 -- -- 98
2017-11-05 19:00:00 2.7 4 Oeste 23 Noroeste 0.4 -- -- 98
2017-11-05 18:00:00 2.7 4 Oeste 17 Sur 0 -- -- 97
2017-11-05 17:00:00 2.9 5 Oeste 18 Sur 1.2 -- -- 97
2017-11-05 16:00:00 2.9 6 Sudoeste 22 Noroeste 0 -- -- 94
2017-11-05 15:00:00 2.9 8 Sudeste 22 Sur 1.6 -- -- 98
2017-11-05 14:00:00 3.3 3 Noroeste 15 Oeste 0.6 -- -- 98
2017-11-05 13:00:00 3.3 7 Noroeste 19 Sudoeste 0.2 -- -- 91
2017-11-05 12:00:00 2.8 2 Este 15 Sudoeste 0.6 -- -- 100
2017-11-05 11:00:00 2.5 3 Sudoeste 22 Noroeste 0.4 -- -- 99
2017-11-05 10:00:00 2.1 4 Oeste 16 Oeste 0.2 -- -- 100
2017-11-05 09:00:00 2.1 3 Sudoeste 13 Sudoeste 1 -- -- 100
2017-11-05 08:00:00 2.2 3 Sudoeste 9 Oeste 1 -- -- 100
2017-11-05 07:00:00 2.2 2 Sur 15 Sur 0.6 -- -- 99
2017-11-05 06:00:00 2.3 3 Noroeste 17 Oeste 0.8 -- -- 97
2017-11-05 05:00:00 2.7 4 Sudoeste 12 Oeste 0.2 -- -- 98
2017-11-05 04:00:00 3 0 Calma 13 Sudeste 1.4 -- -- 99
2017-11-05 03:00:00 3.3 4 Sur 17 Sur 1.2 -- -- 98
2017-11-05 02:00:00 3.8 4 Sur 15 Sudeste 1.2 -- -- 99
2017-11-05 01:00:00 4 6 Este 22 Sudeste 1.6 -- -- 97
2017-11-05 00:00:00 4.5 4 Sur 14 Sur 1.4 -- -- 97
2017-11-04 23:00:00 5.1 6 Sur 24 Noroeste 1.6 -- -- 96
2017-11-04 22:00:00 5.6 4 Oeste 19 Sur 1.4 -- -- 97
2017-11-04 21:00:00 5.8 4 Sur 24 Sudeste 0.6 -- -- 97
2017-11-04 20:00:00 6.2 12 Sudeste 32 Sur 1.2 -- -- 96
2017-11-04 19:00:00 6.5 3 Sudoeste 23 Oeste 1.2 -- -- 96
2017-11-04 18:00:00 6.6 4 Oeste 17 Sudoeste 0 -- -- 95
2017-11-04 17:00:00 7 3 Sur 13 Oeste 0.2 -- -- 96
2017-11-04 16:00:00 7.2 6 Oeste 23 Oeste 3 -- -- 92
2017-11-04 15:00:00 9.1 2 Oeste 8 Oeste 0 -- -- 90
2017-11-04 14:00:00 8.8 2 Noroeste 7 Oeste 0 -- -- 91
2017-11-04 13:00:00 8 2 Nordeste 9 Oeste 0 -- -- 97
2017-11-04 12:00:00 8.9 2 Este 10 Sur 0 -- -- 92
2017-11-04 11:00:00 8.3 0 Calma 4 Sur 0 -- -- 93
2017-11-04 10:00:00 7.6 0 Calma 6 Este 0 -- -- 97
2017-11-04 09:00:00 6.9 3 Este 10 Este 0.2 -- -- 96
2017-11-04 08:00:00 7 6 Este 14 Nordeste 0 -- -- 94
2017-11-04 07:00:00 7.3 11 Este 18 Este 0 -- -- 91
2017-11-04 06:00:00 7.4 9 Este 15 Este 0 -- -- 88
2017-11-04 05:00:00 7.2 8 Nordeste 16 Nordeste 0 -- -- 89
2017-11-04 04:00:00 7.2 10 Nordeste 20 Nordeste 0 -- -- 89
2017-11-04 03:00:00 7.2 13 Nordeste 20 Nordeste 0 -- -- 90
2017-11-04 02:00:00 7.2 11 Nordeste 18 Este 0 -- -- 92
2017-11-04 01:00:00 7 9 Nordeste 19 Este 0 -- -- 93
2017-11-04 00:00:00 6.6 4 Nordeste 10 Este 0.2 -- -- 93
2017-11-03 23:00:00 6.8 2 Noroeste 13 Este 0 -- -- 94
2017-11-03 22:00:00 7.4 8 Nordeste 17 Este 0 -- -- 91
2017-11-03 21:00:00 7.5 11 Nordeste 18 Nordeste 0 -- -- 91
2017-11-03 20:00:00 6.3 0 Calma 5 Noroeste 0 -- -- 97
2017-11-03 19:00:00 7.1 2 Noroeste 6 Noroeste 0 -- -- 96
2017-11-03 18:00:00 7.5 2 Noroeste 9 Oeste 0 -- -- 96
2017-11-03 17:00:00 7.9 3 Norte 14 Sur 0.6 -- -- 94
2017-11-03 16:00:00 8.4 4 Norte 17 Oeste 0 -- -- 89
2017-11-03 15:00:00 8.6 4 Norte 23 Sudoeste 0.2 -- -- 87
2017-11-03 14:00:00 8.3 4 Este 14 Sur 0.6 -- -- 91
2017-11-03 13:00:00 8.2 6 Oeste 23 Sudoeste 0 -- -- 87
2017-11-03 12:00:00 7.9 5 Sudeste 22 Sudeste 0 -- -- 89
2017-11-03 11:00:00 7.5 5 Sudeste 15 Sudoeste 0 -- -- 91
2017-11-03 10:00:00 6.7 3 Noroeste 9 Oeste 0 -- -- 99
2017-11-03 09:00:00 6.6 2 Nordeste 8 Norte 0.6 -- -- 98
2017-11-03 08:00:00 6.4 3 Noroeste 14 Nordeste 0 -- -- 96
2017-11-03 07:00:00 6.8 0 Calma 14 Nordeste 0 -- -- 96
2017-11-03 06:00:00 7.2 4 Este 19 Nordeste 1.6 -- -- 95
2017-11-03 05:00:00 7.5 13 Este 21 Nordeste 0 -- -- 93
2017-11-03 04:00:00 7.5 11 Nordeste 25 Este 0 -- -- 92
2017-11-03 03:00:00 7.5 18 Nordeste 27 Este 0 -- -- 91
2017-11-03 02:00:00 7.2 15 Nordeste 25 Este 0 -- -- 91
2017-11-03 01:00:00 7.3 13 Nordeste 24 Este 0 -- -- 91
2017-11-03 00:00:00 7.5 10 Nordeste 24 Nordeste 0 -- -- 90
2017-11-02 23:00:00 7.4 13 Nordeste 19 Nordeste 0 -- -- 92
2017-11-02 22:00:00 7.3 4 Sudoeste 14 Este 0 -- -- 94
2017-11-02 21:00:00 7.5 10 Nordeste 19 Nordeste 0.2 -- -- 91
2017-11-02 20:00:00 7.9 5 Este 18 Sur 1.2 -- -- 90
2017-11-02 19:00:00 7.7 6 Nordeste 15 Este 0.2 -- -- 91
2017-11-02 18:00:00 8.1 5 Este 16 Este 1.4 -- -- 93
2017-11-02 17:00:00 9.1 5 Nordeste 17 Noroeste 1.4 -- -- 90
2017-11-02 16:00:00 9.9 4 Noroeste 13 Sudoeste 0.2 -- -- 83
2017-11-02 15:00:00 10.1 7 Noroeste 20 Noroeste 0.4 -- -- 82
2017-11-02 14:00:00 11.1 5 Norte 29 Noroeste 0 -- -- 74
2017-11-02 13:00:00 11.4 7 Norte 26 Noroeste 0 -- -- 69
2017-11-02 12:00:00 11.4 7 Norte 19 Sur 0 -- -- 67
2017-11-02 11:00:00 11.1 10 Norte 29 Oeste 0 -- -- 67
2017-11-02 10:00:00 10.6 10 Noroeste 31 Oeste 0 -- -- 70
2017-11-02 09:00:00 10.5 11 Norte 30 Nordeste 0 -- -- 74
2017-11-02 08:00:00 10.7 10 Este 24 Este 0 -- -- 75
2017-11-02 07:00:00 10.7 6 Noroeste 23 Noroeste 0 -- -- 74
2017-11-02 06:00:00 10.8 4 Norte 23 Oeste 0 -- -- 75
2017-11-02 05:00:00 11 5 Norte 18 Norte 0 -- -- 73
2017-11-02 04:00:00 11 6 Este 16 Este 0 -- -- 72
2017-11-02 03:00:00 11 6 Noroeste 17 Noroeste 0 -- -- 71
2017-11-02 02:00:00 11 5 Noroeste 25 Nordeste 0 -- -- 70
2017-11-02 01:00:00 11.1 5 Norte 20 Sudeste 0 -- -- 69
2017-11-02 00:00:00 11.1 4 Oeste 27 Oeste 0 -- -- 67
2017-11-01 23:00:00 11.1 11 Noroeste 29 Noroeste 0 -- -- 67
2017-11-01 22:00:00 10.9 10 Nordeste 26 Este 0 -- -- 69
2017-11-01 21:00:00 10.9 6 Noroeste 16 Este 0 -- -- 68
2017-11-01 20:00:00 11.2 4 Norte 22 Noroeste 0 -- -- 66
2017-11-01 19:00:00 11.1 2 Nordeste 12 Noroeste 0 -- -- 65
2017-11-01 18:00:00 11.7 3 Nordeste 13 Nordeste 0 -- -- 63
2017-11-01 17:00:00 12.2 4 Noroeste 15 Oeste 0 -- -- 62
2017-11-01 16:00:00 12.5 7 Oeste 18 Oeste 0 -- -- 60
2017-11-01 15:00:00 12.7 6 Norte 23 Este 0 -- -- 57
2017-11-01 14:00:00 12.9 9 Sudeste 29 Oeste 0 -- -- 55
2017-11-01 13:00:00 13.6 5 Sudeste 24 Oeste 0 -- -- 53
2017-11-01 12:00:00 12.4 5 Norte 18 Norte 0 -- -- 58
2017-11-01 11:00:00 11.9 5 Noroeste 13 Este 0 -- -- 58
2017-11-01 10:00:00 11.1 6 Norte 22 Este 0 -- -- 60
2017-11-01 09:00:00 10 4 Este 10 Sudeste 0 -- -- 63
2017-11-01 08:00:00 8.5 3 Norte 18 Oeste 0 -- -- 69
2017-11-01 07:00:00 6.9 2 Noroeste 12 Sudeste 0 -- -- 70
2017-11-01 06:00:00 7.3 4 Nordeste 12 Nordeste 0 -- -- 66
2017-11-01 05:00:00 7.5 3 Norte 12 Noroeste 0 -- -- 65
2017-11-01 04:00:00 6.1 4 Noroeste 9 Noroeste 0 -- -- 70
2017-11-01 03:00:00 5.8 3 Norte 11 Noroeste 0 -- -- 70
2017-11-01 02:00:00 5.4 4 Norte 8 Norte 0 -- -- 66
2017-11-01 01:00:00 5.2 3 Noroeste 7 Noroeste 0 -- -- 61
2017-11-01 00:00:00 5.7 3 Noroeste 10 Este 0 -- -- 58
2017-10-31 23:00:00 7 3 Norte 20 Nordeste 0 -- -- 51
2017-10-31 22:00:00 8.7 8 Este 19 Nordeste 0 -- -- 45
2017-10-31 21:00:00 9.3 13 Nordeste 19 Este 0 -- -- 43
2017-10-31 20:00:00 9.1 7 Nordeste 15 Nordeste 0 -- -- 44
2017-10-31 19:00:00 8 4 Noroeste 8 Noroeste 0 -- -- 48
2017-10-31 18:00:00 10.9 2 Oeste 8 Oeste 0 -- -- 47
2017-10-31 17:00:00 13.9 4 Noroeste 12 Sudeste 0 -- -- 37
2017-10-31 16:00:00 16.3 4 Sudeste 17 Sur 0 -- -- 31
2017-10-31 15:00:00 17.1 3 Sur 17 Sudeste 0 -- -- 30
2017-10-31 14:00:00 16.8 6 Sur 19 Este 0 -- -- 27
2017-10-31 13:00:00 15 13 Este 25 Este 0 -- -- 22
2017-10-31 12:00:00 13.8 12 Este 23 Este 0 -- -- 22
2017-10-31 11:00:00 13.1 13 Este 27 Este 0 -- -- 21
2017-10-31 10:00:00 12.2 9 Este 23 Este 0 -- -- 24
2017-10-31 09:00:00 11 16 Nordeste 26 Este 0 -- -- 19
2017-10-31 08:00:00 8.6 9 Nordeste 17 Nordeste 0 -- -- 30
2017-10-31 07:00:00 4 0 Calma 5 Noroeste 0 -- -- 50
2017-10-31 06:00:00 4 4 Oeste 9 Noroeste 0 -- -- 53
2017-10-31 05:00:00 4 3 Oeste 16 Este 0 -- -- 56
2017-10-31 04:00:00 9.4 11 Este 22 Este 0 -- -- 35
2017-10-31 03:00:00 4.4 3 Oeste 22 Este 0 -- -- 59
2017-10-31 02:00:00 8.8 11 Este 29 Nordeste 0 -- -- 41
2017-10-31 01:00:00 7 16 Nordeste 24 Nordeste 0 -- -- 59
2017-10-31 00:00:00 7.2 9 Nordeste 31 Este 0 -- -- 59
2017-10-30 23:00:00 7 18 Nordeste 28 Nordeste 0 -- -- 69
2017-10-30 22:00:00 5 2 Sudoeste 23 Nordeste 0 -- -- 86
2017-10-30 21:00:00 5.5 0 Calma 20 Este 0 -- -- 86
2017-10-30 20:00:00 7.2 8 Nordeste 13 Nordeste 0 -- -- 78
2017-10-30 19:00:00 8 0 Calma 6 Sudoeste 0 -- -- 91
2017-10-30 18:00:00 8.7 0 Calma 5 Sur 0 -- -- 91
2017-10-30 17:00:00 10.1 3 Norte 11 Sur 0 -- -- 82
2017-10-30 16:00:00 11.8 4 Sur 18 Sur 0 -- -- 74
2017-10-30 15:00:00 12.6 7 Sudeste 16 Sur 0 -- -- 73
2017-10-30 14:00:00 11.5 5 Sudoeste 14 Sudoeste 0 -- -- 78
2017-10-30 13:00:00 11.8 6 Sudeste 17 Sudeste 0 -- -- 78
2017-10-30 12:00:00 10.8 7 Sur 15 Sur 0 -- -- 81
2017-10-30 11:00:00 9.9 4 Sur 34 Norte 0 -- -- 84
2017-10-30 10:00:00 8.9 15 Norte 31 Nordeste 0 -- -- 80
2017-10-30 09:00:00 8.1 10 Sur 33 Sudeste 0 -- -- 88
2017-10-30 08:00:00 5.7 6 Nordeste 19 Noroeste 0 -- -- 99
2017-10-30 07:00:00 4.9 2 Sudoeste 11 Sur 0 -- -- 99
2017-10-30 06:00:00 4.6 0 Calma 14 Nordeste 0 -- -- 98
2017-10-30 05:00:00 4.1 2 Noroeste 7 Noroeste 0 -- -- 97
2017-10-30 04:00:00 4.4 0 Calma 16 Norte 0 -- -- 96
2017-10-30 03:00:00 4.8 0 Calma 6 Noroeste 0 -- -- 97
2017-10-30 02:00:00 4.8 0 Calma 5 Norte 0 -- -- 98
2017-10-30 01:00:00 4 0 Calma 5 Oeste 0 -- -- 97
2017-10-30 00:00:00 4.4 2 Noroeste 5 Noroeste 0 -- -- 96
2017-10-29 23:00:00 4.1 0 Calma 5 Sudeste 0 -- -- 93
2017-10-29 22:00:00 6.6 0 Calma 2 Noroeste 0 -- -- 92
2017-10-29 21:00:00 6.5 0 Calma 4 Oeste 0 -- -- 96
2017-10-29 20:00:00 5.1 0 Calma 4 Noroeste 0 -- -- 93
2017-10-29 19:00:00 6.3 3 Noroeste 4 Noroeste 0 -- -- 90
2017-10-29 18:00:00 9.2 0 Calma 5 Noroeste 0 -- -- 82
2017-10-29 17:00:00 10.5 2 Nordeste 11 Oeste 0 -- -- 77
2017-10-29 16:00:00 13.3 3 Sudoeste 15 Sudeste 0 -- -- 67
2017-10-29 15:00:00 14.2 6 Sudeste 19 Sur 0 -- -- 65
2017-10-29 14:00:00 13.9 5 Noroeste 16 Sur 0 -- -- 63
2017-10-29 13:00:00 13.9 5 Sudoeste 17 Sur 0 -- -- 59
2017-10-29 12:00:00 15.2 9 Nordeste 19 Este 0 -- -- 49
2017-10-29 11:00:00 15.8 8 Norte 22 Nordeste 0 -- -- 45
2017-10-29 10:00:00 15.6 9 Nordeste 21 Nordeste 0 -- -- 46
2017-10-29 09:00:00 13.6 9 Nordeste 19 Norte 0 -- -- 51
2017-10-29 08:00:00 7.3 2 Oeste 6 Sudoeste 0 -- -- 71
2017-10-29 07:00:00 9.6 8 Norte 13 Nordeste 0 -- -- 61
2017-10-29 06:00:00 5.4 0 Calma 5 Noroeste 0 -- -- 74
2017-10-29 05:00:00 5.9 2 Oeste 6 Noroeste 0 -- -- 69
2017-10-29 04:00:00 8.3 3 Noroeste 7 Norte 0 -- -- 63
2017-10-29 03:00:00 9.6 4 Norte 8 Norte 0 -- -- 60
2017-10-29 02:00:00 8.7 4 Norte 8 Nordeste 0 -- -- 58
2017-10-29 01:00:00 7.9 2 Noroeste 5 Noroeste 0 -- -- 58
2017-10-29 00:00:00 6.9 0 Calma 5 Noroeste 0 -- -- 92
2017-10-28 23:00:00 7.9 0 Calma 4 Sur 0 -- -- 93
2017-10-28 22:00:00 8.7 0 Calma 5 Sudoeste 0 -- -- 91
2017-10-28 21:00:00 9.7 0 Calma 4 Noroeste 0 -- -- 84
2017-10-28 20:00:00 12.9 2 Norte 18 Norte 0 -- -- 73
2017-10-28 19:00:00 16.6 6 Nordeste 21 Este 0 -- -- 48
2017-10-28 18:00:00 17.8 6 Nordeste 22 Este 0 -- -- 38
2017-10-28 17:00:00 19.6 9 Nordeste 23 Sudeste 0 -- -- 35
2017-10-28 16:00:00 19.9 5 Este 18 Sudoeste 0 -- -- 39
2017-10-28 15:00:00 19.4 5 Norte 19 Sudoeste 0 -- -- 40
2017-10-28 14:00:00 19.5 7 Sudoeste 16 Sudoeste 0 -- -- 35
2017-10-28 13:00:00 19.4 5 Sudoeste 14 Sur 0 -- -- 34
2017-10-28 12:00:00 17.9 4 Sur 17 Este 0 -- -- 37
2017-10-28 11:00:00 17.3 5 Sur 28 Norte 0 -- -- 45
2017-10-28 10:00:00 16.6 11 Norte 31 Norte 0 -- -- 38
2017-10-28 09:00:00 15.1 8 Este 25 Nordeste 0 -- -- 42
2017-10-28 08:00:00 15.1 7 Este 26 Este 0 -- -- 42
2017-10-28 07:00:00 15.2 9 Este 25 Este 0 -- -- 40
2017-10-28 06:00:00 15.7 9 Sudeste 25 Nordeste 0 -- -- 39
2017-10-28 05:00:00 16.5 9 Este 23 Este 0 -- -- 35
2017-10-28 04:00:00 17 8 Nordeste 24 Norte 0 -- -- 33
2017-10-28 03:00:00 17 10 Nordeste 28 Este 0 -- -- 31
2017-10-28 02:00:00 16.6 9 Sudeste 35 Sudeste 0 -- -- 33
2017-10-28 01:00:00 15.6 10 Sudeste 23 Sudeste 0 -- -- 35
2017-10-28 00:00:00 14.3 5 Sur 28 Este 0 -- -- 50
2017-10-27 23:00:00 12.5 5 Sur 21 Sudeste 0 -- -- 61
2017-10-27 22:00:00 12.5 4 Oeste 19 Oeste 0 -- -- 64
2017-10-27 21:00:00 14.4 5 Sudoeste 21 Sudeste 0 -- -- 55
2017-10-27 20:00:00 15.9 5 Norte 21 Sudoeste 0 -- -- 44
2017-10-27 19:00:00 17.4 4 Sudoeste 22 Noroeste 0 -- -- 44
2017-10-27 18:00:00 19 7 Nordeste 32 Este 0 -- -- 39
2017-10-27 17:00:00 20.6 8 Sudoeste 31 Nordeste 0 -- -- 35
2017-10-27 16:00:00 21 10 Nordeste 32 Norte 0 -- -- 34
2017-10-27 15:00:00 21.3 9 Sudoeste 27 Norte 0 -- -- 34
2017-10-27 14:00:00 20.9 10 Noroeste 26 Noroeste 0 -- -- 34
2017-10-27 13:00:00 20.7 6 Sur 16 Sur 0 -- -- 39
2017-10-27 12:00:00 19.3 6 Sudeste 12 Sur 0 -- -- 42
2017-10-27 11:00:00 17.1 4 Sur 9 Sur 0 -- -- 48
2017-10-27 10:00:00 13 4 Sudoeste 12 Noroeste 0 -- -- 51
2017-10-27 09:00:00 11.5 4 Sudoeste 11 Oeste 0 -- -- 58
2017-10-27 08:00:00 10.4 3 Oeste 13 Noroeste 0 -- -- 64
2017-10-27 07:00:00 10.1 4 Noroeste 8 Noroeste 0 -- -- 62
2017-10-27 06:00:00 10.4 5 Noroeste 12 Norte 0 -- -- 61
2017-10-27 05:00:00 10.4 9 Norte 12 Norte 0 -- -- 62
2017-10-27 04:00:00 10.7 6 Noroeste 8 Noroeste 0 -- -- 61
2017-10-27 03:00:00 10.5 5 Noroeste 8 Noroeste 0 -- -- 63
2017-10-27 02:00:00 10.9 6 Noroeste 8 Noroeste 0 -- -- 64
2017-10-27 01:00:00 10.4 6 Noroeste 8 Noroeste 0 -- -- 68
2017-10-27 00:00:00 10.6 5 Noroeste 8 Noroeste 0 -- -- 69
2017-10-26 23:00:00 10.9 6 Noroeste 8 Noroeste 0 -- -- 71
2017-10-26 22:00:00 11.3 4 Noroeste 8 Noroeste 0 -- -- 71
2017-10-26 21:00:00 11.9 5 Noroeste 7 Noroeste 0 -- -- 68
2017-10-26 20:00:00 13 3 Noroeste 6 Noroeste 0 -- -- 63
2017-10-26 19:00:00 15.7 3 Noroeste 8 Oeste 0 -- -- 55
2017-10-26 18:00:00 18.4 2 Sudeste 13 Sur 0 -- -- 47
2017-10-26 17:00:00 20 3 Noroeste 16 Sudoeste 0 -- -- 41
2017-10-26 16:00:00 20 5 Sudoeste 13 Sudeste 0 -- -- 41
2017-10-26 15:00:00 19.4 5 Sur 19 Sur 0 -- -- 41
2017-10-26 14:00:00 19.3 4 Norte 22 Sur 0 -- -- 43
2017-10-26 13:00:00 19.1 6 Sur 23 Sur 0 -- -- 43
2017-10-26 12:00:00 17.7 6 Este 20 Sudoeste 0 -- -- 46
2017-10-26 11:00:00 15.3 10 Noroeste 30 Sur 0 -- -- 50
2017-10-26 10:00:00 12 2 Nordeste 11 Norte 0 -- -- 65
2017-10-26 09:00:00 9.2 4 Noroeste 7 Norte 0 -- -- 75
2017-10-26 08:00:00 10.3 3 Nordeste 9 Oeste 0 -- -- 66
2017-10-26 07:00:00 11.8 3 Noroeste 20 Oeste 0 -- -- 52
2017-10-26 06:00:00 12.8 7 Noroeste 20 Noroeste 0 -- -- 46
2017-10-26 05:00:00 13.4 6 Noroeste 22 Noroeste 0 -- -- 42
2017-10-26 04:00:00 14.1 6 Noroeste 21 Oeste 0 -- -- 38
2017-10-26 03:00:00 13.3 5 Norte 35 Norte 0 -- -- 41
2017-10-26 02:00:00 14.1 5 Noroeste 19 Sudeste 0 -- -- 44
2017-10-26 01:00:00 14.7 8 Nordeste 16 Este 0 -- -- 41
2017-10-26 00:00:00 13.1 5 Nordeste 13 Noroeste 0 -- -- 48